ePrivacy and GPDR Cookie Consent by Cookie Consent
EmailTwitter


Surface observations / United Kingdom / EGLL (03772)

Regions: Quebec | Canada | USA | Europe | France | UK | Elsewhere
Station
Display
Info & Location for EGLL (03772) | Help decoding METAR

Weather Conditions observed on 2021/05/06 at 22:50 UTC at LONDON/HEATHROW, UK (EGLL)

Temperature: 8.0 Celsius.

Dewpoint: -2.0 Celsius.

Relative Humidity: 49%

Winds: West-northwest at 11 km/h or 6 knots.

Mean Sea level Pressure: 101.00 kilopascals.

Horizontal visibility: 6.21 statute miles or 9.94 kilometers.

Coded METAR:

EGLL 062250Z AUTO 29006KT 9999 NCD 08/M02 Q1010 NOSIG=